Time;durP1;ratioP1;P1;durP2;ratioP2;P2;SDS_P1;SDS_P2;PMS_P1;PMS_P2;Temp;Humidity;BMP_temperature;BMP_pressure;BME280_temperature;BME280_humidity;BME280_pressure;Samples;Min_cycle;Max_cycle;Signal;HPM_P1;HPM_P2
2023/03/07 00:00:49;;;;;;;1.75;1.65;;;;;;;;;;5056333;28;20170;-51
2023/03/07 00:03:16;;;;;;;1.70;1.60;;;;;;;;;;5042477;28;20194;-50
2023/03/07 00:05:42;;;;;;;2.30;1.90;;;;;;;;;;5045545;28;20210;-50
2023/03/07 00:08:09;;;;;;;1.70;1.60;;;;;;;;;;5052437;28;20171;-50
2023/03/07 00:10:34;;;;;;;1.80;1.70;;;;;;;;;;5051165;28;20210;-51
2023/03/07 00:13:01;;;;;;;2.00;1.80;;;;;;;;;;5047199;28;20176;-51
2023/03/07 00:15:26;;;;;;;1.70;1.60;;;;;;;;;;5052604;28;20914;-51
2023/03/07 00:17:52;;;;;;;1.80;1.70;;;;;;;;;;5060575;28;20190;-51
2023/03/07 00:20:18;;;;;;;1.83;1.55;;;;;;;;;;5052763;28;20183;-51
2023/03/07 00:22:47;;;;;;;1.73;1.63;;;;;;;;;;5050301;28;20477;-51
2023/03/07 00:25:14;;;;;;;2.00;1.83;;;;;;;;;;5050842;28;20250;-51
2023/03/07 00:27:40;;;;;;;1.55;1.45;;;;;;;;;;5059322;28;20254;-51
2023/03/07 00:30:06;;;;;;;1.60;1.50;;;;;;;;;;5054382;28;20284;-51
2023/03/07 00:32:32;;;;;;;2.05;1.75;;;;;;;;;;5057717;28;20233;-50
2023/03/07 00:34:58;;;;;;;2.00;1.80;;;;;;;;;;5042022;28;20514;-50
2023/03/07 00:37:24;;;;;;;1.63;1.52;;;;;;;;;;5047239;28;20183;-50
2023/03/07 00:39:50;;;;;;;1.90;1.80;;;;;;;;;;5052353;28;20558;-50
2023/03/07 00:42:16;;;;;;;1.77;1.67;;;;;;;;;;5058013;28;20198;-51
2023/03/07 00:44:42;;;;;;;1.90;1.80;;;;;;;;;;5058112;28;20210;-50
2023/03/07 00:47:08;;;;;;;2.33;1.83;;;;;;;;;;5066497;28;20489;-50
2023/03/07 00:49:34;;;;;;;1.88;1.77;;;;;;;;;;5053009;28;20606;-51
2023/03/07 00:52:00;;;;;;;2.20;2.00;;;;;;;;;;5041755;28;20499;-51
2023/03/07 00:54:26;;;;;;;2.88;1.85;;;;;;;;;;5049397;28;20186;-50
2023/03/07 00:56:52;;;;;;;1.77;1.67;;;;;;;;;;5056804;28;20178;-51
2023/03/07 00:59:18;;;;;;;2.05;1.77;;;;;;;;;;5069868;28;20175;-50
2023/03/07 01:01:44;;;;;;;2.15;1.83;;;;;;;;;;5048285;28;20180;-50
2023/03/07 01:04:10;;;;;;;1.80;1.70;;;;;;;;;;5043081;28;20180;-51
2023/03/07 01:06:36;;;;;;;2.30;1.88;;;;;;;;;;5047691;28;20594;-51
2023/03/07 01:09:04;;;;;;;2.35;1.83;;;;;;;;;;5056189;28;20179;-50
2023/03/07 01:11:30;;;;;;;1.95;1.85;;;;;;;;;;5057823;28;20197;-51
2023/03/07 01:13:57;;;;;;;1.98;1.65;;;;;;;;;;5046964;28;20186;-51
2023/03/07 01:16:24;;;;;;;2.20;2.00;;;;;;;;;;5049077;28;20187;-50
2023/03/07 01:18:51;;;;;;;2.10;1.90;;;;;;;;;;5055181;28;20234;-51
2023/03/07 01:21:22;;;;;;;2.20;2.03;;;;;;;;;;5039981;28;20191;-51
2023/03/07 01:23:48;;;;;;;2.10;1.90;;;;;;;;;;5055468;28;20170;-51
2023/03/07 01:26:15;;;;;;;1.73;1.63;;;;;;;;;;5060999;28;20277;-50
2023/03/07 01:28:41;;;;;;;1.90;1.80;;;;;;;;;;5054394;28;20211;-51
2023/03/07 01:31:07;;;;;;;1.73;1.63;;;;;;;;;;5065853;28;20179;-51
2023/03/07 01:33:33;;;;;;;1.67;1.58;;;;;;;;;;5042486;28;20454;-51
2023/03/07 01:35:59;;;;;;;1.80;1.67;;;;;;;;;;5063994;28;20547;-51
2023/03/07 01:38:27;;;;;;;1.70;1.60;;;;;;;;;;5060845;28;20294;-50
2023/03/07 01:40:53;;;;;;;1.67;1.58;;;;;;;;;;5068765;28;20213;-51
2023/03/07 01:43:26;;;;;;;1.73;1.63;;;;;;;;;;5060870;28;20202;-50
2023/03/07 01:46:21;;;;;;;2.17;1.92;;;;;;;;;;5049906;28;20301;-50
2023/03/07 01:48:53;;;;;;;2.20;2.00;;;;;;;;;;5051885;28;20187;-51
2023/03/07 01:51:20;;;;;;;2.28;1.90;;;;;;;;;;5070222;28;20268;-50
2023/03/07 01:53:47;;;;;;;2.65;1.77;;;;;;;;;;5059550;28;20179;-51
2023/03/07 01:56:13;;;;;;;2.13;1.92;;;;;;;;;;5052187;28;20194;-51
2023/03/07 01:58:39;;;;;;;2.78;2.15;;;;;;;;;;5059392;28;20188;-50
2023/03/07 02:01:07;;;;;;;2.60;2.33;;;;;;;;;;5045224;28;20272;-51
2023/03/07 02:03:38;;;;;;;2.03;1.92;;;;;;;;;;5051506;28;20195;-51
2023/03/07 02:06:07;;;;;;;1.85;1.65;;;;;;;;;;5059995;28;20266;-50
2023/03/07 02:08:34;;;;;;;2.33;1.80;;;;;;;;;;5062128;28;20621;-51
2023/03/07 02:11:00;;;;;;;1.90;1.80;;;;;;;;;;5063311;28;20171;-51
2023/03/07 02:13:26;;;;;;;1.95;1.75;;;;;;;;;;5067930;28;20183;-50
2023/03/07 02:15:52;;;;;;;1.75;1.65;;;;;;;;;;5054044;28;20329;-50
2023/03/07 02:18:20;;;;;;;1.60;1.50;;;;;;;;;;5063210;28;20191;-51
2023/03/07 02:20:52;;;;;;;1.92;1.83;;;;;;;;;;5061443;28;20202;-51
2023/03/07 02:23:27;;;;;;;1.60;1.50;;;;;;;;;;5069503;28;20294;-51
2023/03/07 02:25:58;;;;;;;1.77;1.67;;;;;;;;;;5059199;28;20207;-51
2023/03/07 02:28:24;;;;;;;2.20;2.00;;;;;;;;;;5039961;28;20238;-51
2023/03/07 02:30:54;;;;;;;2.13;1.90;;;;;;;;;;5064295;28;20183;-51
2023/03/07 02:33:23;;;;;;;1.98;1.80;;;;;;;;;;5070145;28;20179;-51
2023/03/07 02:35:50;;;;;;;1.98;1.60;;;;;;;;;;5055309;28;20182;-50
2023/03/07 02:38:16;;;;;;;1.80;1.60;;;;;;;;;;5066695;28;20192;-51
2023/03/07 02:40:42;;;;;;;1.85;1.73;;;;;;;;;;5065634;28;20191;-51
2023/03/07 02:43:08;;;;;;;2.25;1.65;;;;;;;;;;5057852;28;20193;-51
2023/03/07 02:45:34;;;;;;;2.03;1.83;;;;;;;;;;5043501;28;20204;-50
2023/03/07 02:48:00;;;;;;;2.00;1.80;;;;;;;;;;5049310;28;20172;-51
2023/03/07 02:50:26;;;;;;;2.03;1.80;;;;;;;;;;5041747;28;20222;-50
2023/03/07 02:52:52;;;;;;;2.17;1.98;;;;;;;;;;5049593;28;20190;-50
2023/03/07 02:55:17;;;;;;;2.40;2.05;;;;;;;;;;5046640;28;20225;-51
2023/03/07 02:57:43;;;;;;;2.00;1.90;;;;;;;;;;5057671;28;20551;-50
2023/03/07 03:00:11;;;;;;;2.13;1.90;;;;;;;;;;5064199;28;20182;-51
2023/03/07 03:02:37;;;;;;;1.70;1.60;;;;;;;;;;5048245;28;20268;-51
2023/03/07 03:05:03;;;;;;;2.03;1.83;;;;;;;;;;5037140;28;20662;-50
2023/03/07 03:07:29;;;;;;;1.77;1.67;;;;;;;;;;5046657;28;20188;-51
2023/03/07 03:09:55;;;;;;;2.85;2.20;;;;;;;;;;5047372;28;20175;-51
2023/03/07 03:12:21;;;;;;;2.33;2.13;;;;;;;;;;5044554;28;20180;-51
2023/03/07 03:14:47;;;;;;;2.25;2.05;;;;;;;;;;5052813;28;20187;-51
2023/03/07 03:17:13;;;;;;;2.55;2.30;;;;;;;;;;5047283;28;20535;-51
2023/03/07 03:19:38;;;;;;;2.40;2.20;;;;;;;;;;5051269;28;20203;-50
2023/03/07 03:22:05;;;;;;;1.88;1.77;;;;;;;;;;5063355;28;20202;-51
2023/03/07 03:24:30;;;;;;;2.63;2.42;;;;;;;;;;5062869;28;20188;-51
2023/03/07 03:26:57;;;;;;;2.45;2.25;;;;;;;;;;5063863;28;20201;-51
2023/03/07 03:29:24;;;;;;;2.33;2.17;;;;;;;;;;5054972;28;20194;-50
2023/03/07 03:31:50;;;;;;;3.00;2.30;;;;;;;;;;5052159;28;20194;-51
2023/03/07 03:34:16;;;;;;;2.25;2.13;;;;;;;;;;5053810;28;20261;-51
2023/03/07 03:36:42;;;;;;;2.30;2.10;;;;;;;;;;5049030;28;20226;-51
2023/03/07 03:39:09;;;;;;;2.20;2.00;;;;;;;;;;5053002;28;20225;-50
2023/03/07 03:41:36;;;;;;;2.28;2.08;;;;;;;;;;5066888;28;20181;-51
2023/03/07 03:44:02;;;;;;;2.47;2.28;;;;;;;;;;5063094;28;20202;-51
2023/03/07 03:46:28;;;;;;;1.92;1.83;;;;;;;;;;5056220;28;20222;-50
2023/03/07 03:48:54;;;;;;;2.38;2.17;;;;;;;;;;5046417;28;20175;-50
2023/03/07 03:51:21;;;;;;;2.72;2.53;;;;;;;;;;5062660;28;20427;-51
2023/03/07 03:53:47;;;;;;;3.22;2.38;;;;;;;;;;5045377;28;20450;-51
2023/03/07 03:56:14;;;;;;;2.83;2.40;;;;;;;;;;5053834;28;20200;-51
2023/03/07 03:58:41;;;;;;;2.22;2.03;;;;;;;;;;5048403;28;20465;-50
2023/03/07 04:01:09;;;;;;;2.83;2.45;;;;;;;;;;5050244;28;20193;-50
2023/03/07 04:03:36;;;;;;;2.40;2.20;;;;;;;;;;5049857;28;20218;-51
2023/03/07 04:06:03;;;;;;;2.30;2.10;;;;;;;;;;5058481;28;20207;-51
2023/03/07 04:08:29;;;;;;;2.35;2.15;;;;;;;;;;5049004;28;20183;-51
2023/03/07 04:10:55;;;;;;;2.33;2.13;;;;;;;;;;5063753;28;20332;-51
2023/03/07 04:13:21;;;;;;;2.42;2.22;;;;;;;;;;5068472;28;20586;-51
2023/03/07 04:15:47;;;;;;;2.15;1.95;;;;;;;;;;5064018;28;20593;-51
2023/03/07 04:18:12;;;;;;;2.45;2.25;;;;;;;;;;5058749;28;20262;-51
2023/03/07 04:20:38;;;;;;;2.17;2.05;;;;;;;;;;5051289;28;20199;-51
2023/03/07 04:23:04;;;;;;;2.40;2.20;;;;;;;;;;5068932;28;20180;-50
2023/03/07 04:25:31;;;;;;;2.28;2.08;;;;;;;;;;5067051;28;20293;-51
2023/03/07 04:27:57;;;;;;;2.50;2.30;;;;;;;;;;5046612;28;20183;-51
2023/03/07 04:30:25;;;;;;;2.92;2.03;;;;;;;;;;5050017;28;20584;-50
2023/03/07 04:32:51;;;;;;;2.33;2.13;;;;;;;;;;5060305;28;20207;-51
2023/03/07 04:35:17;;;;;;;2.63;2.25;;;;;;;;;;5052905;28;20190;-51
2023/03/07 04:37:43;;;;;;;2.35;2.15;;;;;;;;;;5059623;28;20190;-51
2023/03/07 04:40:09;;;;;;;2.72;2.53;;;;;;;;;;5057155;28;20186;-51
2023/03/07 04:42:35;;;;;;;2.45;2.22;;;;;;;;;;5068987;28;20273;-50
2023/03/07 04:45:01;;;;;;;2.15;2.00;;;;;;;;;;5051688;28;20281;-51
2023/03/07 04:47:27;;;;;;;2.40;2.20;;;;;;;;;;5057652;28;20559;-51
2023/03/07 04:49:53;;;;;;;4.60;2.15;;;;;;;;;;5042430;28;20213;-50
2023/03/07 04:52:18;;;;;;;2.85;2.17;;;;;;;;;;5041777;28;20280;-51
2023/03/07 04:54:44;;;;;;;2.83;2.50;;;;;;;;;;5051904;28;20183;-50
2023/03/07 04:57:10;;;;;;;3.80;1.98;;;;;;;;;;5056189;28;20209;-51
2023/03/07 04:59:38;;;;;;;3.45;1.95;;;;;;;;;;5060046;28;20579;-51
2023/03/07 05:02:07;;;;;;;3.08;2.35;;;;;;;;;;5035057;28;20638;-51
2023/03/07 05:04:33;;;;;;;2.73;1.90;;;;;;;;;;5045308;28;20326;-51
2023/03/07 05:06:59;;;;;;;3.22;2.78;;;;;;;;;;5046071;28;20266;-51
2023/03/07 05:09:25;;;;;;;6.00;2.47;;;;;;;;;;5049684;28;20183;-55
2023/03/07 05:11:51;;;;;;;4.10;2.53;;;;;;;;;;5053236;28;20183;-55
2023/03/07 05:14:17;;;;;;;7.53;3.00;;;;;;;;;;5047993;28;20548;-55
2023/03/07 05:16:43;;;;;;;7.13;2.72;;;;;;;;;;5036718;28;20199;-55
2023/03/07 05:19:09;;;;;;;4.97;2.42;;;;;;;;;;5048127;28;20182;-55
2023/03/07 05:21:38;;;;;;;4.20;2.53;;;;;;;;;;5045058;28;20504;-55
2023/03/07 05:24:04;;;;;;;2.38;2.17;;;;;;;;;;5052637;28;20429;-55
2023/03/07 05:26:30;;;;;;;4.22;2.50;;;;;;;;;;5048566;28;20217;-55
2023/03/07 05:28:56;;;;;;;10.77;2.75;;;;;;;;;;5040134;28;20248;-55
2023/03/07 05:31:22;;;;;;;4.47;2.38;;;;;;;;;;5058942;28;20185;-55
2023/03/07 05:33:48;;;;;;;4.72;2.40;;;;;;;;;;5059178;28;20262;-55
2023/03/07 05:36:14;;;;;;;5.05;2.35;;;;;;;;;;5071634;28;20184;-55
2023/03/07 05:38:40;;;;;;;4.38;2.83;;;;;;;;;;5061289;28;20728;-55
2023/03/07 05:41:05;;;;;;;5.05;2.72;;;;;;;;;;5069370;28;20178;-55
2023/03/07 05:43:31;;;;;;;5.20;2.75;;;;;;;;;;5053689;28;20176;-55
2023/03/07 05:45:57;;;;;;;5.43;2.55;;;;;;;;;;5062747;28;20203;-54
2023/03/07 05:48:23;;;;;;;3.85;2.55;;;;;;;;;;5063365;28;20188;-54
2023/03/07 05:50:49;;;;;;;3.80;2.50;;;;;;;;;;5064599;28;20223;-55
2023/03/07 05:53:15;;;;;;;4.45;2.40;;;;;;;;;;5060792;28;20215;-54
2023/03/07 05:55:41;;;;;;;4.13;2.78;;;;;;;;;;5063207;28;20191;-55
2023/03/07 05:58:07;;;;;;;4.45;2.72;;;;;;;;;;5064859;28;20190;-55
2023/03/07 06:00:33;;;;;;;4.22;2.63;;;;;;;;;;5063768;28;20182;-55
2023/03/07 06:03:01;;;;;;;4.10;2.45;;;;;;;;;;5061736;28;20229;-55
2023/03/07 06:05:26;;;;;;;2.83;2.30;;;;;;;;;;5060332;28;20205;-55
2023/03/07 06:07:52;;;;;;;4.00;2.15;;;;;;;;;;5040808;28;20210;-55
2023/03/07 06:10:19;;;;;;;3.58;2.13;;;;;;;;;;5063438;28;20473;-55
2023/03/07 06:12:48;;;;;;;3.67;2.25;;;;;;;;;;5059462;28;20240;-54
2023/03/07 06:15:15;;;;;;;5.25;2.38;;;;;;;;;;5057548;28;20298;-55
2023/03/07 06:17:40;;;;;;;4.50;2.40;;;;;;;;;;5061494;28;20184;-54
2023/03/07 06:20:06;;;;;;;4.30;2.25;;;;;;;;;;5055652;28;20194;-55
2023/03/07 06:22:33;;;;;;;4.10;2.65;;;;;;;;;;5076890;28;20450;-54
2023/03/07 06:24:59;;;;;;;3.92;2.17;;;;;;;;;;5061233;28;20454;-54
2023/03/07 06:27:25;;;;;;;3.78;2.47;;;;;;;;;;5061235;28;20176;-54
2023/03/07 06:29:51;;;;;;;2.78;2.20;;;;;;;;;;5051078;28;20614;-55
2023/03/07 06:32:17;;;;;;;3.58;2.00;;;;;;;;;;5061951;28;20171;-54
2023/03/07 06:34:42;;;;;;;2.08;1.88;;;;;;;;;;5053003;28;20478;-54
2023/03/07 06:37:08;;;;;;;3.17;1.95;;;;;;;;;;5058801;28;20187;-54
2023/03/07 06:39:34;;;;;;;2.20;2.00;;;;;;;;;;5058042;28;20226;-54
2023/03/07 06:42:00;;;;;;;4.88;2.13;;;;;;;;;;5053188;28;20176;-54
2023/03/07 06:44:26;;;;;;;2.83;2.15;;;;;;;;;;5048382;28;20217;-54
2023/03/07 06:46:52;;;;;;;1.92;1.70;;;;;;;;;;5071331;28;20249;-54
2023/03/07 06:49:18;;;;;;;3.00;2.20;;;;;;;;;;5039618;28;20275;-54
2023/03/07 06:51:44;;;;;;;4.40;2.30;;;;;;;;;;5037764;28;20187;-54
2023/03/07 06:54:10;;;;;;;2.20;1.88;;;;;;;;;;5048348;28;20234;-54
2023/03/07 06:56:36;;;;;;;2.63;1.80;;;;;;;;;;5056537;28;20184;-54
2023/03/07 06:59:02;;;;;;;2.15;1.95;;;;;;;;;;5058401;28;20191;-54
2023/03/07 07:01:28;;;;;;;2.20;2.00;;;;;;;;;;5059276;28;20202;-54
2023/03/07 07:03:54;;;;;;;2.90;1.75;;;;;;;;;;5050316;28;20197;-54
2023/03/07 07:06:20;;;;;;;2.33;1.70;;;;;;;;;;5047658;28;20432;-54
2023/03/07 07:08:45;;;;;;;2.83;1.98;;;;;;;;;;5054507;28;20199;-54
2023/03/07 07:11:11;;;;;;;2.33;1.80;;;;;;;;;;5054426;28;20206;-54
2023/03/07 07:13:37;;;;;;;2.53;1.63;;;;;;;;;;5048952;28;20606;-54
2023/03/07 07:16:07;;;;;;;2.17;1.80;;;;;;;;;;5043363;28;20213;-53
2023/03/07 07:18:33;;;;;;;1.95;1.70;;;;;;;;;;5052985;28;20184;-54
2023/03/07 07:20:59;;;;;;;1.98;1.77;;;;;;;;;;5053696;28;20504;-54
2023/03/07 07:23:25;;;;;;;2.45;1.50;;;;;;;;;;5057322;28;20179;-54
2023/03/07 07:25:51;;;;;;;2.47;1.80;;;;;;;;;;5065686;28;20302;-54
2023/03/07 07:28:17;;;;;;;2.42;1.80;;;;;;;;;;5067693;28;20206;-54
2023/03/07 07:30:43;;;;;;;1.80;1.70;;;;;;;;;;5049217;28;20241;-54
2023/03/07 07:33:09;;;;;;;1.58;1.48;;;;;;;;;;5054192;28;20187;-54
2023/03/07 07:35:35;;;;;;;1.65;1.50;;;;;;;;;;5057869;28;20523;-54
2023/03/07 07:38:02;;;;;;;1.70;1.60;;;;;;;;;;5049728;28;20187;-54
2023/03/07 07:40:28;;;;;;;2.00;1.80;;;;;;;;;;5061340;28;20178;-54
2023/03/07 07:42:54;;;;;;;1.63;1.52;;;;;;;;;;5074534;28;20182;-54
2023/03/07 07:45:23;;;;;;;1.52;1.40;;;;;;;;;;5069391;28;20202;-54
2023/03/07 07:47:49;;;;;;;1.98;1.60;;;;;;;;;;5070496;28;20182;-54
2023/03/07 07:50:16;;;;;;;1.60;1.40;;;;;;;;;;5054086;28;20175;-54
2023/03/07 07:52:42;;;;;;;2.20;1.80;;;;;;;;;;5063355;28;20197;-54
2023/03/07 07:55:09;;;;;;;2.15;1.70;;;;;;;;;;5062799;28;20167;-54
2023/03/07 07:57:35;;;;;;;1.58;1.48;;;;;;;;;;5067289;28;20217;-54
2023/03/07 08:00:01;;;;;;;1.90;1.40;;;;;;;;;;5074582;28;20210;-54
2023/03/07 08:02:27;;;;;;;1.92;1.70;;;;;;;;;;5060478;28;20187;-54
2023/03/07 08:04:53;;;;;;;1.52;1.40;;;;;;;;;;5065381;28;20192;-55
2023/03/07 08:07:19;;;;;;;2.38;1.17;;;;;;;;;;5072723;28;20163;-54
2023/03/07 08:09:45;;;;;;;1.60;1.50;;;;;;;;;;5074125;28;20182;-54
2023/03/07 08:12:11;;;;;;;1.95;1.75;;;;;;;;;;5051005;28;20190;-54
2023/03/07 08:14:37;;;;;;;1.70;1.45;;;;;;;;;;5040098;28;20176;-54
2023/03/07 08:17:03;;;;;;;2.38;1.35;;;;;;;;;;5047923;28;20182;-56
2023/03/07 08:19:30;;;;;;;1.63;1.40;;;;;;;;;;5052668;28;20630;-55
2023/03/07 08:21:56;;;;;;;4.85;1.77;;;;;;;;;;5063302;28;20212;-56
2023/03/07 08:24:21;;;;;;;3.90;1.73;;;;;;;;;;5064662;28;20529;-55
2023/03/07 08:26:47;;;;;;;1.92;1.30;;;;;;;;;;5060226;28;20235;-55
2023/03/07 08:29:13;;;;;;;2.30;1.48;;;;;;;;;;5052684;28;20488;-55
2023/03/07 08:31:42;;;;;;;2.25;1.20;;;;;;;;;;5052038;28;20221;-53
2023/03/07 08:34:08;;;;;;;2.60;1.25;;;;;;;;;;5051369;28;20176;-51
2023/03/07 08:36:34;;;;;;;2.47;1.50;;;;;;;;;;5058762;28;20231;-48
2023/03/07 08:39:00;;;;;;;4.80;1.52;;;;;;;;;;5062521;28;20187;-46
2023/03/07 08:41:26;;;;;;;2.80;1.42;;;;;;;;;;5043182;28;20191;-47
2023/03/07 08:43:52;;;;;;;4.32;1.33;;;;;;;;;;5050144;28;20183;-46
2023/03/07 08:46:18;;;;;;;2.17;1.65;;;;;;;;;;5056214;28;20223;-48
2023/03/07 08:48:44;;;;;;;3.80;1.30;;;;;;;;;;5054540;28;20450;-48
2023/03/07 08:51:11;;;;;;;2.13;1.13;;;;;;;;;;5036988;28;20180;-48
2023/03/07 08:53:38;;;;;;;2.28;1.40;;;;;;;;;;5050722;28;20286;-46
2023/03/07 08:56:07;;;;;;;1.75;1.55;;;;;;;;;;5038084;28;20270;-45
2023/03/07 08:58:34;;;;;;;1.40;1.30;;;;;;;;;;5059229;28;20172;-42
2023/03/07 09:01:00;;;;;;;5.65;1.38;;;;;;;;;;5053409;28;20735;-49
2023/03/07 09:03:25;;;;;;;2.35;1.27;;;;;;;;;;5043149;28;20206;-49
2023/03/07 09:05:51;;;;;;;2.00;1.40;;;;;;;;;;5035593;28;20207;-51
2023/03/07 09:08:17;;;;;;;2.60;1.83;;;;;;;;;;5051949;28;20450;-49
2023/03/07 09:10:43;;;;;;;4.57;1.20;;;;;;;;;;5046676;28;20196;-50
2023/03/07 09:13:10;;;;;;;5.20;1.38;;;;;;;;;;5045311;28;20176;-51
2023/03/07 09:15:38;;;;;;;3.75;1.58;;;;;;;;;;5044986;28;20219;-50
2023/03/07 09:18:04;;;;;;;2.47;1.38;;;;;;;;;;5038082;28;20194;-50
2023/03/07 09:20:30;;;;;;;4.13;1.45;;;;;;;;;;5041603;28;20190;-51
2023/03/07 09:22:56;;;;;;;2.38;1.20;;;;;;;;;;5057955;28;20194;-50
2023/03/07 09:25:22;;;;;;;3.53;1.33;;;;;;;;;;5063264;28;20202;-48
2023/03/07 09:27:48;;;;;;;16.70;2.22;;;;;;;;;;5064828;28;20222;-52
2023/03/07 09:30:14;;;;;;;10.98;1.77;;;;;;;;;;5056294;28;20206;-48
2023/03/07 09:32:40;;;;;;;3.88;1.40;;;;;;;;;;5044916;28;20551;-50
2023/03/07 09:35:07;;;;;;;5.72;1.30;;;;;;;;;;5057090;28;20190;-49
2023/03/07 09:37:33;;;;;;;2.83;1.40;;;;;;;;;;5056015;28;20187;-52
2023/03/07 09:39:58;;;;;;;2.55;1.13;;;;;;;;;;5051950;28;20243;-47
2023/03/07 09:42:27;;;;;;;2.25;1.23;;;;;;;;;;5047788;28;20230;-49
2023/03/07 09:45:11;;;;;;;5.40;1.50;;;;;;;;;;5048839;28;20214;-50
2023/03/07 09:47:53;;;;;;;2.00;1.33;;;;;;;;;;5056658;28;20618;-50
2023/03/07 09:50:22;;;;;;;2.72;1.23;;;;;;;;;;5062241;28;20516;-51
2023/03/07 09:52:50;;;;;;;3.03;1.38;;;;;;;;;;5074771;28;20236;-48
2023/03/07 09:55:18;;;;;;;1.38;1.27;;;;;;;;;;5051054;28;20558;-46
2023/03/07 09:57:50;;;;;;;3.45;1.17;;;;;;;;;;5065352;28;20203;-50
2023/03/07 10:00:35;;;;;;;7.05;1.35;;;;;;;;;;5044907;28;20482;-49
2023/03/07 10:03:11;;;;;;;3.58;1.30;;;;;;;;;;5040863;28;20183;-48
2023/03/07 10:05:38;;;;;;;6.97;1.40;;;;;;;;;;5051504;28;20295;-49
2023/03/07 10:08:04;;;;;;;2.50;1.00;;;;;;;;;;5058506;28;20190;-49
2023/03/07 10:10:30;;;;;;;4.57;1.20;;;;;;;;;;5055006;28;20187;-47
2023/03/07 10:13:21;;;;;;;1.20;1.08;;;;;;;;;;5056405;28;20596;-48
2023/03/07 10:15:49;;;;;;;3.17;1.20;;;;;;;;;;5047449;28;20233;-48
2023/03/07 10:18:31;;;;;;;3.42;1.20;;;;;;;;;;5073620;28;20407;-52
2023/03/07 10:21:17;;;;;;;3.90;1.40;;;;;;;;;;5046666;28;20270;-48
2023/03/07 10:24:00;;;;;;;7.82;1.10;;;;;;;;;;5068593;28;20201;-48
2023/03/07 10:26:32;;;;;;;4.55;1.10;;;;;;;;;;5072905;28;20214;-49
2023/03/07 10:28:59;;;;;;;2.08;1.50;;;;;;;;;;5042585;28;20195;-51
2023/03/07 10:31:28;;;;;;;3.58;1.13;;;;;;;;;;5043154;28;20883;-49
2023/03/07 10:33:54;;;;;;;4.50;1.20;;;;;;;;;;5051350;28;20226;-49
2023/03/07 10:36:22;;;;;;;6.63;1.35;;;;;;;;;;5037948;28;20179;-48
2023/03/07 10:38:56;;;;;;;1.50;1.27;;;;;;;;;;5040755;28;20183;-49
2023/03/07 10:41:22;;;;;;;4.00;1.25;;;;;;;;;;5044938;28;20184;-50
2023/03/07 10:43:48;;;;;;;13.57;1.73;;;;;;;;;;5047663;28;20226;-50
2023/03/07 10:46:22;;;;;;;7.47;1.60;;;;;;;;;;5050454;28;20245;-50
2023/03/07 10:48:52;;;;;;;3.25;1.38;;;;;;;;;;5048896;28;20171;-50
2023/03/07 10:51:27;;;;;;;2.92;1.48;;;;;;;;;;5041400;28;20555;-51
2023/03/07 10:53:55;;;;;;;5.78;2.03;;;;;;;;;;5053340;28;20570;-51
2023/03/07 10:56:21;;;;;;;5.93;1.60;;;;;;;;;;5052149;28;20190;-48
2023/03/07 10:59:04;;;;;;;5.97;1.60;;;;;;;;;;5047236;28;20184;-49
2023/03/07 11:01:31;;;;;;;1.77;1.50;;;;;;;;;;5053517;28;20581;-48
2023/03/07 11:04:02;;;;;;;4.00;1.70;;;;;;;;;;5047427;28;20266;-48
2023/03/07 11:06:30;;;;;;;3.13;1.58;;;;;;;;;;5045042;28;20183;-48
2023/03/07 11:08:57;;;;;;;4.00;1.58;;;;;;;;;;5053625;28;20216;-48
2023/03/07 11:11:24;;;;;;;3.53;1.70;;;;;;;;;;5055200;28;20175;-48
2023/03/07 11:14:11;;;;;;;3.53;1.40;;;;;;;;;;5050346;28;20597;-48
2023/03/07 11:17:03;;;;;;;3.10;1.50;;;;;;;;;;5055990;28;20245;-48
2023/03/07 11:19:40;;;;;;;2.80;1.48;;;;;;;;;;5053669;28;20201;-49
2023/03/07 11:22:25;;;;;;;4.32;1.95;;;;;;;;;;5053526;28;20178;-49
2023/03/07 11:24:53;;;;;;;5.75;1.50;;;;;;;;;;5057654;28;20289;-48
2023/03/07 11:27:21;;;;;;;6.07;1.75;;;;;;;;;;5069972;28;20233;-51
2023/03/07 11:30:04;;;;;;;3.38;1.63;;;;;;;;;;5062135;28;20565;-51
2023/03/07 11:32:30;;;;;;;7.35;1.60;;;;;;;;;;5044476;28;20191;-51
2023/03/07 11:34:59;;;;;;;8.63;1.83;;;;;;;;;;5054628;28;20183;-47
2023/03/07 11:37:38;;;;;;;6.72;1.50;;;;;;;;;;5055222;28;20179;-49
2023/03/07 11:40:23;;;;;;;4.00;1.40;;;;;;;;;;5051559;28;20217;-48
2023/03/07 11:42:56;;;;;;;2.97;1.60;;;;;;;;;;5057746;28;20320;-48
2023/03/07 11:45:25;;;;;;;3.20;1.30;;;;;;;;;;5048931;28;20195;-47
2023/03/07 11:48:01;;;;;;;5.68;2.08;;;;;;;;;;5053206;28;20203;-45
2023/03/07 11:50:31;;;;;;;3.38;1.55;;;;;;;;;;5054302;28;20187;-48
2023/03/07 11:53:00;;;;;;;3.17;1.30;;;;;;;;;;5053482;28;20570;-48
2023/03/07 11:55:37;;;;;;;2.90;1.80;;;;;;;;;;5060623;28;20201;-47
2023/03/07 11:58:22;;;;;;;3.40;1.58;;;;;;;;;;5058760;28;20186;-50
2023/03/07 12:01:07;;;;;;;5.03;1.58;;;;;;;;;;5048756;28;20197;-52
2023/03/07 12:03:42;;;;;;;2.45;1.58;;;;;;;;;;5050021;28;20191;-45
2023/03/07 12:06:22;;;;;;;1.95;1.20;;;;;;;;;;5060217;28;20192;-49
2023/03/07 12:09:07;;;;;;;1.50;1.40;;;;;;;;;;5068670;28;20477;-47
2023/03/07 12:11:48;;;;;;;1.55;1.40;;;;;;;;;;5070873;28;20178;-54
2023/03/07 12:14:27;;;;;;;1.95;1.20;;;;;;;;;;5055342;28;20171;-43
2023/03/07 12:16:59;;;;;;;1.60;1.50;;;;;;;;;;5058377;28;20194;-48
2023/03/07 12:19:42;;;;;;;4.28;1.83;;;;;;;;;;5052688;28;20191;-47
2023/03/07 12:22:17;;;;;;;4.53;1.40;;;;;;;;;;5062841;28;20182;-45
2023/03/07 12:24:50;;;;;;;4.78;1.90;;;;;;;;;;5052071;28;20205;-45
2023/03/07 12:27:18;;;;;;;2.33;1.73;;;;;;;;;;5068456;28;20333;-45
2023/03/07 12:29:47;;;;;;;3.22;1.58;;;;;;;;;;5044834;28;20222;-45
2023/03/07 12:32:17;;;;;;;3.17;1.98;;;;;;;;;;5074928;28;20546;-45
2023/03/07 12:34:47;;;;;;;5.15;1.60;;;;;;;;;;5065170;28;20187;-45
2023/03/07 12:37:18;;;;;;;3.05;1.73;;;;;;;;;;5061559;28;20182;-45
2023/03/07 12:39:44;;;;;;;4.35;2.05;;;;;;;;;;5059979;28;20175;-44
2023/03/07 12:42:09;;;;;;;3.42;1.70;;;;;;;;;;5051504;28;20206;-44
2023/03/07 12:44:44;;;;;;;5.63;1.80;;;;;;;;;;5069520;28;20549;-44
2023/03/07 12:47:15;;;;;;;4.05;2.00;;;;;;;;;;5059692;28;20206;-44
2023/03/07 12:49:47;;;;;;;3.97;1.90;;;;;;;;;;5066804;28;20174;-44
2023/03/07 12:52:16;;;;;;;3.53;1.98;;;;;;;;;;5061046;28;20589;-45
2023/03/07 12:54:49;;;;;;;6.05;2.42;;;;;;;;;;5058333;28;20171;-45
2023/03/07 12:57:19;;;;;;;3.35;2.05;;;;;;;;;;5064918;28;20219;-44
2023/03/07 12:59:45;;;;;;;3.90;1.88;;;;;;;;;;5056841;28;20278;-44
2023/03/07 13:02:23;;;;;;;5.30;1.95;;;;;;;;;;5065553;28;20499;-44
2023/03/07 13:04:49;;;;;;;5.03;2.00;;;;;;;;;;5067362;28;20202;-45
2023/03/07 13:07:17;;;;;;;3.17;1.70;;;;;;;;;;5077804;28;20593;-44
2023/03/07 13:09:48;;;;;;;3.83;1.65;;;;;;;;;;5060887;28;20236;-43
2023/03/07 13:12:23;;;;;;;4.63;1.92;;;;;;;;;;5066668;28;20171;-43
2023/03/07 13:14:49;;;;;;;3.17;2.10;;;;;;;;;;5057378;28;20181;-43
2023/03/07 13:17:33;;;;;;;2.42;1.50;;;;;;;;;;5076212;28;20483;-44
2023/03/07 13:20:17;;;;;;;2.78;1.77;;;;;;;;;;5067403;28;20195;-44
2023/03/07 13:22:43;;;;;;;4.80;1.67;;;;;;;;;;5065109;28;20288;-44
2023/03/07 13:25:29;;;;;;;3.83;1.67;;;;;;;;;;5057106;28;20289;-43
2023/03/07 13:27:59;;;;;;;4.63;1.70;;;;;;;;;;5059811;28;20175;-44
2023/03/07 13:30:29;;;;;;;2.53;1.55;;;;;;;;;;5054216;28;20203;-43
2023/03/07 13:32:57;;;;;;;3.35;1.58;;;;;;;;;;5045126;28;20450;-44
2023/03/07 13:35:37;;;;;;;4.38;1.70;;;;;;;;;;5057457;28;20209;-44
2023/03/07 13:38:22;;;;;;;2.25;1.45;;;;;;;;;;5045650;28;20195;-43
2023/03/07 13:40:48;;;;;;;2.90;1.52;;;;;;;;;;5050624;28;20233;-43
2023/03/07 13:43:23;;;;;;;4.47;1.50;;;;;;;;;;5052531;28;20456;-44
2023/03/07 13:46:01;;;;;;;1.90;1.50;;;;;;;;;;5044158;28;20214;-43
2023/03/07 13:48:27;;;;;;;3.05;1.55;;;;;;;;;;5051949;28;20266;-43
2023/03/07 13:50:53;;;;;;;3.20;1.70;;;;;;;;;;5042564;28;20310;-44
2023/03/07 13:53:28;;;;;;;3.80;1.50;;;;;;;;;;5042012;28;20555;-45
2023/03/07 13:56:00;;;;;;;4.95;1.70;;;;;;;;;;5038198;28;20198;-44
2023/03/07 13:58:28;;;;;;;2.30;1.45;;;;;;;;;;5048468;28;20233;-45
2023/03/07 14:01:03;;;;;;;5.13;1.77;;;;;;;;;;5038486;28;20188;-48
2023/03/07 14:03:58;;;;;;;3.85;1.65;;;;;;;;;;5042832;28;20182;-48
2023/03/07 14:06:39;;;;;;;3.38;1.70;;;;;;;;;;5042531;28;20441;-48
2023/03/07 14:09:07;;;;;;;2.05;1.23;;;;;;;;;;5039599;28;20203;-49
2023/03/07 14:11:48;;;;;;;2.60;1.70;;;;;;;;;;5041295;28;20200;-49
2023/03/07 14:14:14;;;;;;;2.60;1.50;;;;;;;;;;5036163;28;20187;-49
2023/03/07 14:16:59;;;;;;;3.60;1.73;;;;;;;;;;5038216;28;20188;-49
2023/03/07 14:19:40;;;;;;;5.45;1.60;;;;;;;;;;5040910;28;23175;-49
2023/03/07 14:22:29;;;;;;;4.35;1.50;;;;;;;;;;5045472;28;20184;-49
2023/03/07 14:25:00;;;;;;;1.58;1.40;;;;;;;;;;5050182;28;20214;-47
2023/03/07 14:27:26;;;;;;;1.45;1.35;;;;;;;;;;5044859;28;20198;-47
2023/03/07 14:29:55;;;;;;;2.42;1.58;;;;;;;;;;5036726;28;20194;-47
2023/03/07 14:32:27;;;;;;;2.83;1.60;;;;;;;;;;5044966;28;20246;-48
2023/03/07 14:34:52;;;;;;;2.17;1.30;;;;;;;;;;5044357;28;20180;-47
2023/03/07 14:37:25;;;;;;;3.65;1.52;;;;;;;;;;5055805;28;20198;-47
2023/03/07 14:40:07;;;;;;;1.67;1.17;;;;;;;;;;5051380;28;20199;-47
2023/03/07 14:42:50;;;;;;;2.53;1.40;;;;;;;;;;5055860;28;20696;-47
2023/03/07 14:45:35;;;;;;;2.47;1.50;;;;;;;;;;5055116;28;20205;-47
2023/03/07 14:48:22;;;;;;;1.48;1.38;;;;;;;;;;5052261;28;20246;-47
2023/03/07 14:50:48;;;;;;;1.23;1.00;;;;;;;;;;5042649;28;20555;-47
2023/03/07 14:53:18;;;;;;;1.33;1.20;;;;;;;;;;5045150;28;20210;-47